Time;durP1;ratioP1;P1;durP2;ratioP2;P2;SDS_P1;SDS_P2;PMS_P1;PMS_P2;Temp;Humidity;BMP_temperature;BMP_pressure;BME280_temperature;BME280_humidity;BME280_pressure;Samples;Min_cycle;Max_cycle;Signal;HPM_P1;HPM_P2
2023/01/31 00:01:14;;;;;;;;;;;;;;;10.46;45.63;100539.25;4921501;28;98563;-66
2023/01/31 00:03:40;;;;;;;;;;;;;;;10.45;45.28;100520.63;4955509;28;100077;-67
2023/01/31 00:06:17;;;;;;;;;;;;;;;10.44;45.70;100535.19;4919619;28;98031;-66
2023/01/31 00:08:43;;;;;;;;;;;;;;;10.44;45.23;100537.88;4943144;28;105715;-66
2023/01/31 00:11:09;;;;;;;;;;;;;;;10.42;45.31;100535.47;4957035;28;98855;-66
2023/01/31 00:13:35;;;;;;;;;;;;;;;10.41;45.43;100536.53;4938677;28;100871;-66
2023/01/31 00:16:01;;;;;;;;;;;;;;;10.40;45.43;100536.78;4955504;28;99309;-66
2023/01/31 00:18:27;;;;;;;;;;;;;;;10.39;45.20;100541.38;4922734;28;99127;-66
2023/01/31 00:20:53;;;;;;;;;;;;;;;10.38;45.04;100536.25;4921581;28;119852;-66
2023/01/31 00:23:19;;;;;;;;;;;;;;;10.37;45.41;100534.63;4952571;28;128941;-66
2023/01/31 00:25:45;;;;;;;;;;;;;;;10.35;45.32;100534.91;4940290;28;97977;-65
2023/01/31 00:28:11;;;;;;;;;;;;;;;10.34;45.04;100541.38;4953816;28;128223;-66
2023/01/31 00:30:37;;;;;;;;;;;;;;;10.33;45.16;100545.13;4953304;28;117300;-66
2023/01/31 00:33:03;;;;;;;;;;;;;;;10.32;45.32;100555.09;4956038;28;126104;-66
2023/01/31 00:35:28;;;;;;;;;;;;;;;10.31;45.32;100555.34;4957004;28;122147;-66
2023/01/31 00:37:54;;;;;;;;;;;;;;;10.31;45.66;100555.34;4920069;28;127252;-66
2023/01/31 00:40:20;;;;;;;;;;;;;;;10.30;45.39;100551.06;4940271;28;114139;-66
2023/01/31 00:42:46;;;;;;;;;;;;;;;10.29;45.68;100552.09;4940558;28;99118;-67
2023/01/31 00:45:12;;;;;;;;;;;;;;;10.28;45.66;100553.19;4929758;28;127876;-66
2023/01/31 00:47:38;;;;;;;;;;;;;;;10.27;45.24;100543.50;4956689;28;97889;-66
2023/01/31 00:50:04;;;;;;;;;;;;;;;10.26;45.18;100550.75;4934412;28;117918;-66
2023/01/31 00:52:30;;;;;;;;;;;;;;;10.26;45.33;100552.66;4938168;28;125708;-66
2023/01/31 00:54:56;;;;;;;;;;;;;;;10.26;45.53;100550.75;4952895;28;127574;-67
2023/01/31 00:57:22;;;;;;;;;;;;;;;10.25;45.31;100565.28;4956257;28;98422;-66
2023/01/31 00:59:48;;;;;;;;;;;;;;;10.23;45.70;100556.66;4957534;28;98208;-66
2023/01/31 01:02:14;;;;;;;;;;;;;;;10.23;45.30;100566.63;4941717;28;119052;-67
2023/01/31 01:04:40;;;;;;;;;;;;;;;10.22;45.49;100573.06;4955011;28;128521;-66
2023/01/31 01:07:06;;;;;;;;;;;;;;;10.21;45.30;100557.97;4940231;28;122201;-65
2023/01/31 01:09:32;;;;;;;;;;;;;;;10.20;45.15;100561.75;4922964;28;116985;-67
2023/01/31 01:11:58;;;;;;;;;;;;;;;10.20;45.47;100564.44;4941872;28;110687;-66
2023/01/31 01:14:24;;;;;;;;;;;;;;;10.20;45.03;100569.81;4954154;28;128390;-66
2023/01/31 01:16:50;;;;;;;;;;;;;;;10.19;45.73;100576.28;4940459;28;125124;-66
2023/01/31 01:19:17;;;;;;;;;;;;;;;10.20;45.07;100594.06;4941200;28;99261;-66
2023/01/31 01:21:43;;;;;;;;;;;;;;;10.19;45.19;100582.47;4926986;28;99823;-66
2023/01/31 01:24:14;;;;;;;;;;;;;;;10.19;45.50;100598.66;4927260;28;100008;-67
2023/01/31 01:26:40;;;;;;;;;;;;;;;10.19;44.98;100609.41;4947781;28;121212;-66
2023/01/31 01:29:06;;;;;;;;;;;;;;;10.20;45.72;100610.22;4960078;28;98080;-67
2023/01/31 01:31:32;;;;;;;;;;;;;;;10.19;44.98;100612.13;4940238;28;110274;-66
2023/01/31 01:34:00;;;;;;;;;;;;;;;10.21;45.15;100622.63;4958292;28;98470;-67
2023/01/31 01:36:27;;;;;;;;;;;;;;;10.20;45.31;100616.44;4959077;28;98014;-67
2023/01/31 01:38:53;;;;;;;;;;;;;;;10.21;45.28;100625.31;4943570;28;98092;-66
2023/01/31 01:41:19;;;;;;;;;;;;;;;10.21;45.23;100633.41;4944652;28;99456;-66
2023/01/31 01:43:50;;;;;;;;;;;;;;;10.20;45.27;100635.28;4959897;28;98398;-66
2023/01/31 01:46:25;;;;;;;;;;;;;;;10.20;45.04;100634.47;4957495;28;98217;-66
2023/01/31 01:48:54;;;;;;;;;;;;;;;10.21;45.30;100652.25;4941488;28;109670;-66
2023/01/31 01:51:20;;;;;;;;;;;;;;;10.20;45.35;100646.06;4942812;28;98076;-66
2023/01/31 01:53:48;;;;;;;;;;;;;;;10.21;45.10;100655.75;4935749;28;100059;-68
2023/01/31 01:56:19;;;;;;;;;;;;;;;10.22;45.61;100656.59;4941436;28;99343;-68
2023/01/31 01:58:52;;;;;;;;;;;;;;;10.23;45.33;100663.59;4941071;28;97902;-66
2023/01/31 02:01:18;;;;;;;;;;;;;;;10.23;45.09;100658.22;4943639;28;123765;-66
2023/01/31 02:03:44;;;;;;;;;;;;;;;10.23;45.54;100664.41;4957669;28;127845;-66
2023/01/31 02:06:10;;;;;;;;;;;;;;;10.26;45.22;100671.19;4958601;28;101192;-67
2023/01/31 02:08:36;;;;;;;;;;;;;;;10.26;45.45;100661.22;4942885;28;118065;-66
2023/01/31 02:11:08;;;;;;;;;;;;;;;10.27;45.34;100678.19;4940699;28;110881;-66
2023/01/31 02:13:33;;;;;;;;;;;;;;;10.27;45.71;100670.94;4956631;28;98577;-67
2023/01/31 02:15:59;;;;;;;;;;;;;;;10.28;45.42;100675.22;4933185;28;128025;-66
2023/01/31 02:18:25;;;;;;;;;;;;;;;10.28;45.61;100677.94;4941442;28;117581;-66
2023/01/31 02:21:27;;;;;;;;;;;;;;;10.27;45.17;100681.69;4958186;28;118468;-66
2023/01/31 02:24:25;;;;;;;;;;;;;;;10.29;45.63;100689.50;4940243;28;126027;-66
2023/01/31 02:27:10;;;;;;;;;;;;;;;10.28;45.61;100695.97;4945413;28;121043;-66
2023/01/31 02:30:08;;;;;;;;;;;;;;;10.29;45.27;100697.59;4958867;28;97988;-67
2023/01/31 02:32:59;;;;;;;;;;;;;;;10.29;45.71;100698.41;4942062;28;124237;-65
2023/01/31 02:35:57;;;;;;;;;;;;;;;10.29;45.27;100697.59;4944047;28;119984;-67
2023/01/31 02:38:55;;;;;;;;;;;;;;;10.30;45.38;100712.72;4959021;28;98928;-67
2023/01/31 02:41:50;;;;;;;;;;;;;;;10.30;45.55;100716.22;4957306;28;98323;-66
2023/01/31 02:48:00;;;;;;;;;;;;;;;10.31;45.55;100715.13;4955749;28;98037;-66
2023/01/31 02:50:40;;;;;;;;;;;;;;;10.29;45.62;100724.53;4962053;28;107781;-66
2023/01/31 02:53:06;;;;;;;;;;;;;;;10.27;45.60;100718.63;4942911;28;98071;-66
2023/01/31 02:58:30;;;;;;;;;;;;;;;10.23;45.49;100742.53;4943161;28;98428;-66
2023/01/31 03:00:57;;;;;;;;;;;;;;;10.21;45.16;100741.97;4941907;28;97975;-66
2023/01/31 03:03:29;;;;;;;;;;;;;;;10.21;45.29;100751.94;4939380;28;99875;-68
2023/01/31 03:06:13;;;;;;;;;;;;;;;10.20;45.15;100753.81;4926890;28;97947;-66
2023/01/31 03:08:40;;;;;;;;;;;;;;;10.20;45.29;100755.72;4957317;28;98608;-66
2023/01/31 03:11:06;;;;;;;;;;;;;;;10.17;45.59;100759.72;4944810;28;110541;-67
2023/01/31 03:13:38;;;;;;;;;;;;;;;10.18;45.19;100776.69;4941685;28;97946;-66
2023/01/31 03:19:16;;;;;;;;;;;;;;;10.16;45.57;100776.97;4941115;28;98103;-66
2023/01/31 03:22:16;;;;;;;;;;;;;;;10.15;45.18;100785.31;4928061;28;103407;-66
2023/01/31 03:24:46;;;;;;;;;;;;;;;10.14;45.20;100789.88;4941557;28;99282;-67
2023/01/31 03:27:12;;;;;;;;;;;;;;;10.14;45.27;100778.28;4958378;28;98357;-66
2023/01/31 03:29:38;;;;;;;;;;;;;;;10.13;45.51;100785.53;4945302;28;123414;-66
2023/01/31 03:32:11;;;;;;;;;;;;;;;10.13;45.23;100787.44;4942451;28;107497;-66
2023/01/31 03:34:37;;;;;;;;;;;;;;;10.13;45.32;100793.63;4938578;28;98310;-67
2023/01/31 03:37:49;;;;;;;;;;;;;;;10.11;45.48;100779.63;4941348;28;128955;-66
2023/01/31 03:40:40;;;;;;;;;;;;;;;10.12;45.42;100788.50;4936977;28;100703;-67
2023/01/31 03:43:28;;;;;;;;;;;;;;;10.12;45.53;100794.69;4959481;28;98231;-66
2023/01/31 03:45:58;;;;;;;;;;;;;;;10.12;45.45;100797.41;4942579;28;99457;-66
2023/01/31 03:48:27;;;;;;;;;;;;;;;10.12;45.31;100805.47;4927286;28;114434;-67
2023/01/31 03:50:57;;;;;;;;;;;;;;;10.11;45.37;100793.09;4942087;28;109968;-66
2023/01/31 03:53:42;;;;;;;;;;;;;;;10.09;45.13;100789.81;4940524;28;97929;-67
2023/01/31 03:56:35;;;;;;;;;;;;;;;10.10;45.30;100813.00;4956814;28;103051;-66
2023/01/31 03:59:08;;;;;;;;;;;;;;;10.08;45.26;100807.88;4958850;27;99997;-66
2023/01/31 04:01:34;;;;;;;;;;;;;;;10.11;45.32;100821.91;4940452;28;98348;-66
2023/01/31 04:04:06;;;;;;;;;;;;;;;10.09;45.58;100820.25;4955304;28;97842;-66
2023/01/31 04:06:32;;;;;;;;;;;;;;;10.09;45.57;100824.84;4940317;28;107386;-66
2023/01/31 04:08:58;;;;;;;;;;;;;;;10.10;45.04;100839.94;4924398;28;130786;-66
2023/01/31 04:11:25;;;;;;;;;;;;;;;10.09;45.15;100824.84;4939780;28;98281;-66
2023/01/31 04:13:51;;;;;;;;;;;;;;;10.09;44.98;100832.91;4923852;28;115256;-66
2023/01/31 04:16:17;;;;;;;;;;;;;;;10.09;45.38;100835.63;4939328;28;114846;-67
2023/01/31 04:18:43;;;;;;;;;;;;;;;10.09;45.22;100831.03;4928058;28;127233;-66
2023/01/31 04:21:09;;;;;;;;;;;;;;;10.09;45.02;100824.84;4940665;28;127389;-67
2023/01/31 04:23:35;;;;;;;;;;;;;;;10.10;45.20;100823.78;4938974;28;127997;-67
2023/01/31 04:26:01;;;;;;;;;;;;;;;10.10;45.36;100829.19;4956782;28;108280;-66
2023/01/31 04:28:27;;;;;;;;;;;;;;;10.09;45.22;100828.34;4957166;28;128627;-66
2023/01/31 04:30:53;;;;;;;;;;;;;;;10.09;45.40;100825.66;4940697;28;129099;-69
2023/01/31 04:33:20;;;;;;;;;;;;;;;10.08;45.83;100829.41;4926788;28;98410;-67
2023/01/31 04:35:46;;;;;;;;;;;;;;;10.09;45.64;100841.81;4928908;28;98848;-66
2023/01/31 04:38:11;;;;;;;;;;;;;;;10.09;45.70;100849.88;4941356;28;127594;-67
2023/01/31 04:40:37;;;;;;;;;;;;;;;10.11;45.64;100856.94;4954122;28;128240;-67
2023/01/31 04:43:03;;;;;;;;;;;;;;;10.11;45.47;100856.94;4957439;28;97993;-66
2023/01/31 04:45:29;;;;;;;;;;;;;;;10.12;45.23;100856.66;4954922;28;117999;-66
2023/01/31 04:47:55;;;;;;;;;;;;;;;10.12;45.36;100851.28;4939809;28;128454;-66
2023/01/31 04:50:21;;;;;;;;;;;;;;;10.14;45.73;100859.09;4956975;28;129412;-67
2023/01/31 04:52:50;;;;;;;;;;;;;;;10.14;45.61;100864.47;4956817;28;127970;-66
2023/01/31 04:55:17;;;;;;;;;;;;;;;10.15;45.37;100861.53;4940594;28;99932;-66
2023/01/31 04:57:43;;;;;;;;;;;;;;;10.15;45.51;100858.03;4941658;28;98304;-67
2023/01/31 05:00:09;;;;;;;;;;;;;;;10.15;45.31;100869.63;4955347;28;120292;-67
2023/01/31 05:02:35;;;;;;;;;;;;;;;10.17;45.22;100869.34;4962011;28;98201;-66
2023/01/31 05:05:02;;;;;;;;;;;;;;;10.18;45.64;100868.28;4959023;28;99522;-66
2023/01/31 05:07:28;;;;;;;;;;;;;;;10.19;45.55;100864.53;4943793;28;123007;-65
2023/01/31 05:09:53;;;;;;;;;;;;;;;10.20;45.81;100858.09;4957331;28;124471;-66
2023/01/31 05:12:19;;;;;;;;;;;;;;;10.20;45.54;100861.59;4957641;28;128089;-65
2023/01/31 05:14:45;;;;;;;;;;;;;;;10.21;45.14;100859.69;4944365;28;97991;-66
2023/01/31 05:17:11;;;;;;;;;;;;;;;10.22;45.68;100855.97;4928351;28;127732;-66
2023/01/31 05:19:37;;;;;;;;;;;;;;;10.22;45.73;100846.00;4941093;28;125318;-66
2023/01/31 05:22:03;;;;;;;;;;;;;;;10.23;45.39;100865.66;4926549;28;126010;-66
2023/01/31 05:24:31;;;;;;;;;;;;;;;10.22;45.37;100859.47;4958148;28;117456;-67
2023/01/31 05:26:57;;;;;;;;;;;;;;;10.23;45.25;100866.47;4947357;27;100863;-66
2023/01/31 05:29:25;;;;;;;;;;;;;;;10.24;45.44;100875.34;4944315;28;97966;-67
2023/01/31 05:31:54;;;;;;;;;;;;;;;10.24;45.23;100870.78;4932770;28;99248;-67
2023/01/31 05:34:21;;;;;;;;;;;;;;;10.24;45.47;100878.06;4926619;28;97919;-66
2023/01/31 05:36:47;;;;;;;;;;;;;;;10.25;45.41;100877.81;4958783;28;99759;-66
2023/01/31 05:39:12;;;;;;;;;;;;;;;10.25;45.41;100872.44;4941768;28;98121;-67
2023/01/31 05:41:38;;;;;;;;;;;;;;;10.25;45.45;100880.50;4941837;28;126824;-66
2023/01/31 05:44:04;;;;;;;;;;;;;;;10.26;45.13;100894.81;4935172;28;120563;-66
2023/01/31 05:46:30;;;;;;;;;;;;;;;10.26;45.58;100894.81;4938443;28;127470;-65
2023/01/31 05:48:56;;;;;;;;;;;;;;;10.27;45.61;100907.22;4954712;28;128394;-66
2023/01/31 05:51:22;;;;;;;;;;;;;;;10.26;45.52;100901.03;4951549;28;126829;-67
2023/01/31 05:53:48;;;;;;;;;;;;;;;10.27;45.34;100891.88;4958155;28;98037;-66
2023/01/31 05:56:15;;;;;;;;;;;;;;;10.28;45.64;100898.06;4940936;28;98798;-66
2023/01/31 05:58:41;;;;;;;;;;;;;;;10.27;45.72;100899.94;4972086;28;98559;-66
2023/01/31 06:01:07;;;;;;;;;;;;;;;10.27;45.12;100897.25;4936424;28;118719;-66
2023/01/31 06:03:33;;;;;;;;;;;;;;;10.28;45.71;100900.75;4954068;28;97917;-67
2023/01/31 06:05:59;;;;;;;;;;;;;;;10.27;45.81;100897.25;4950947;28;126982;-66
2023/01/31 06:08:25;;;;;;;;;;;;;;;10.29;45.03;100897.00;4955298;28;127150;-66
2023/01/31 06:10:51;;;;;;;;;;;;;;;10.34;45.59;100893.56;4941289;28;127160;-67
2023/01/31 06:13:17;;;;;;;;;;;;;;;10.41;45.26;100900.34;4959240;28;98110;-67
2023/01/31 06:15:43;;;;;;;;;;;;;;;10.48;45.16;100906.34;4955530;28;127319;-66
2023/01/31 06:18:09;;;;;;;;;;;;;;;10.53;45.60;100909.09;4953243;28;106664;-66
2023/01/31 06:20:37;;;;;;;;;;;;;;;10.57;45.51;100920.16;4945554;28;98223;-66
2023/01/31 06:23:03;;;;;;;;;;;;;;;10.62;45.40;100922.09;4947900;28;98287;-66
2023/01/31 06:25:30;;;;;;;;;;;;;;;10.65;45.68;100918.88;4940811;28;116095;-67
2023/01/31 06:27:55;;;;;;;;;;;;;;;10.68;45.72;100912.97;4943725;28;98351;-67
2023/01/31 06:30:21;;;;;;;;;;;;;;;10.69;45.44;100917.28;4942281;28;127678;-66
2023/01/31 06:32:47;;;;;;;;;;;;;;;10.73;45.66;100923.81;4959668;28;116217;-66
2023/01/31 06:35:13;;;;;;;;;;;;;;;10.75;45.34;100924.38;4952136;28;127955;-66
2023/01/31 06:37:39;;;;;;;;;;;;;;;10.75;45.38;100922.47;4957821;28;98171;-67
2023/01/31 06:40:06;;;;;;;;;;;;;;;10.77;45.28;100923.03;4971161;27;127485;-68
2023/01/31 06:42:31;;;;;;;;;;;;;;;10.78;45.15;100923.84;4941406;28;108604;-67
2023/01/31 06:44:57;;;;;;;;;;;;;;;10.80;45.51;100917.13;4927564;28;114060;-67
2023/01/31 06:47:23;;;;;;;;;;;;;;;10.80;45.28;100913.59;4927483;28;127451;-66
2023/01/31 06:49:49;;;;;;;;;;;;;;;10.81;45.26;100918.75;4940379;28;128729;-66
2023/01/31 06:52:15;;;;;;;;;;;;;;;10.82;45.50;100917.69;4958576;28;117914;-66
2023/01/31 06:54:41;;;;;;;;;;;;;;;10.84;45.57;100922.00;4943476;28;128149;-66
2023/01/31 06:57:07;;;;;;;;;;;;;;;10.85;45.32;100919.06;4942309;28;99631;-66
2023/01/31 06:59:33;;;;;;;;;;;;;;;10.85;45.27;100916.38;4953934;28;127336;-67
2023/01/31 07:01:59;;;;;;;;;;;;;;;10.85;45.27;100919.06;4941247;28;117362;-66
2023/01/31 07:04:25;;;;;;;;;;;;;;;10.86;45.59;100927.97;4927428;28;99961;-66
2023/01/31 07:06:51;;;;;;;;;;;;;;;10.85;45.61;100927.16;4924465;28;130694;-67
2023/01/31 07:09:17;;;;;;;;;;;;;;;10.86;45.48;100930.66;4939310;28;98232;-66
2023/01/31 07:11:43;;;;;;;;;;;;;;;10.86;45.19;100928.78;4957311;28;118153;-67
2023/01/31 07:14:09;;;;;;;;;;;;;;;10.87;45.43;100932.28;4927222;28;130025;-67
2023/01/31 07:16:36;;;;;;;;;;;;;;;10.86;45.34;100926.06;4959502;28;98135;-66
2023/01/31 07:19:02;;;;;;;;;;;;;;;10.86;45.16;100923.38;4942556;28;98130;-67
2023/01/31 07:21:29;;;;;;;;;;;;;;;10.86;45.63;100931.47;4959025;28;98129;-66
2023/01/31 07:23:55;;;;;;;;;;;;;;;10.87;45.13;100934.97;4959440;28;98691;-67
2023/01/31 07:26:20;;;;;;;;;;;;;;;10.87;44.99;100926.88;4940399;28;116024;-66
2023/01/31 07:28:47;;;;;;;;;;;;;;;10.86;44.98;100934.16;4957975;28;127508;-66
2023/01/31 07:31:13;;;;;;;;;;;;;;;10.86;45.47;100933.34;4927459;28;98149;-65
2023/01/31 07:33:39;;;;;;;;;;;;;;;10.83;45.32;100926.59;4939958;28;121416;-66
2023/01/31 07:36:05;;;;;;;;;;;;;;;10.84;45.32;100928.19;4939208;28;98590;-66
2023/01/31 07:38:31;;;;;;;;;;;;;;;10.84;45.13;100922.00;4942352;28;111334;-65
2023/01/31 07:40:59;;;;;;;;;;;;;;;10.85;45.31;100929.03;4942556;28;98140;-66
2023/01/31 07:43:25;;;;;;;;;;;;;;;10.89;45.41;100922.06;4940211;28;100030;-66
2023/01/31 07:45:51;;;;;;;;;;;;;;;10.91;45.18;100912.63;4940327;28;98393;-66
2023/01/31 07:48:22;;;;;;;;;;;;;;;10.92;45.17;100908.03;4925260;28;127258;-66
2023/01/31 07:50:58;;;;;;;;;;;;;;;10.93;44.96;100915.06;4942693;28;100143;-66
2023/01/31 07:53:23;;;;;;;;;;;;;;;10.95;45.21;100915.63;4957375;28;97953;-66
2023/01/31 07:55:49;;;;;;;;;;;;;;;10.99;45.13;100909.44;4938255;28;128354;-65
2023/01/31 07:58:15;;;;;;;;;;;;;;;11.09;45.22;100918.69;4954393;28;127853;-68
2023/01/31 08:03:33;;;;;;;;;;;;;;;11.25;44.75;100920.41;4968968;27;98088;-66
2023/01/31 08:06:05;;;;;;;;;;;;;;;11.30;44.80;100921.25;4939044;28;99122;-67
2023/01/31 08:08:31;;;;;;;;;;;;;;;11.37;45.07;100918.31;4957063;28;114020;-66
2023/01/31 08:10:57;;;;;;;;;;;;;;;11.45;44.91;100925.91;4939174;28;116827;-69
2023/01/31 08:13:25;;;;;;;;;;;;;;;11.52;44.83;100925.69;4941811;28;127227;-66
2023/01/31 08:15:52;;;;;;;;;;;;;;;11.54;44.86;100923.53;4941043;28;98718;-66
2023/01/31 08:18:18;;;;;;;;;;;;;;;11.51;44.84;100932.16;4920813;28;118901;-67
2023/01/31 08:20:44;;;;;;;;;;;;;;;11.49;44.96;100924.31;4939220;28;112767;-66
2023/01/31 08:23:10;;;;;;;;;;;;;;;11.48;45.06;100930.00;4955330;28;117752;-67
2023/01/31 08:25:36;;;;;;;;;;;;;;;11.44;45.09;100931.59;4939101;28;127346;-67
2023/01/31 08:28:02;;;;;;;;;;;;;;;11.41;45.24;100937.50;4941467;28;104686;-66
2023/01/31 08:30:28;;;;;;;;;;;;;;;11.41;45.17;100945.59;4956312;28;98038;-67
2023/01/31 08:32:54;;;;;;;;;;;;;;;11.38;45.20;100933.44;4941802;28;98462;-66
2023/01/31 08:35:20;;;;;;;;;;;;;;;11.39;45.17;100929.66;4956855;28;125780;-65
2023/01/31 08:37:46;;;;;;;;;;;;;;;11.42;45.14;100939.13;4933720;28;126217;-66
2023/01/31 08:40:12;;;;;;;;;;;;;;;11.42;45.29;100941.81;4942259;28;116665;-66
2023/01/31 08:42:38;;;;;;;;;;;;;;;11.45;45.13;100934.03;4944800;28;109464;-66
2023/01/31 08:45:05;;;;;;;;;;;;;;;11.49;45.12;100942.41;4942378;28;128137;-66
2023/01/31 08:47:32;;;;;;;;;;;;;;;11.56;44.94;100943.00;4963729;28;98661;-66
2023/01/31 08:49:58;;;;;;;;;;;;;;;11.60;44.83;100929.78;4939400;28;99441;-66
2023/01/31 08:52:24;;;;;;;;;;;;;;;11.60;44.95;100937.88;4956725;28;127798;-66
2023/01/31 08:54:50;;;;;;;;;;;;;;;11.61;45.13;100936.81;4958551;28;127285;-66
2023/01/31 08:57:16;;;;;;;;;;;;;;;11.63;45.18;100940.03;4958967;28;101923;-66
2023/01/31 08:59:41;;;;;;;;;;;;;;;11.70;44.85;100927.91;4974452;28;99204;-66
2023/01/31 09:02:09;;;;;;;;;;;;;;;11.88;44.56;100925.88;4957720;28;114307;-67
2023/01/31 09:04:35;;;;;;;;;;;;;;;12.10;44.54;100904.84;4957448;28;98005;-66
2023/01/31 09:07:01;;;;;;;;;;;;;;;12.28;44.51;100909.75;4972860;28;126541;-67
2023/01/31 09:09:27;;;;;;;;;;;;;;;12.43;44.45;100919.00;4960551;28;116113;-67
2023/01/31 09:11:53;;;;;;;;;;;;;;;12.53;44.23;100916.28;4928202;28;128411;-66
2023/01/31 09:14:19;;;;;;;;;;;;;;;12.63;44.24;100908.19;4944562;28;127279;-66
2023/01/31 09:16:45;;;;;;;;;;;;;;;12.78;44.12;100905.47;4956942;28;126702;-67
2023/01/31 09:19:11;;;;;;;;;;;;;;;12.95;44.25;100904.38;4928249;28;97900;-66
2023/01/31 09:21:37;;;;;;;;;;;;;;;13.10;44.15;100908.97;4958646;28;102074;-66
2023/01/31 09:24:03;;;;;;;;;;;;;;;13.15;44.28;100900.84;4927811;28;128655;-66
2023/01/31 09:26:29;;;;;;;;;;;;;;;13.12;44.12;100896.75;4957173;28;116425;-67
2023/01/31 09:28:56;;;;;;;;;;;;;;;13.13;44.20;100898.41;4941111;28;98346;-67
2023/01/31 09:31:22;;;;;;;;;;;;;;;13.20;44.48;100898.09;4941029;28;98480;-66
2023/01/31 09:33:48;;;;;;;;;;;;;;;13.16;44.43;100897.03;4943861;28;121143;-67
2023/01/31 09:36:19;;;;;;;;;;;;;;;13.09;44.62;100900.03;4922708;28;130331;-67
2023/01/31 09:38:45;;;;;;;;;;;;;;;13.09;44.58;100901.94;4943767;28;98817;-67
2023/01/31 09:41:35;;;;;;;;;;;;;;;13.03;44.57;100896.50;4942765;28;114631;-66
2023/01/31 09:44:28;;;;;;;;;;;;;;;12.94;44.82;100900.06;4925862;28;127561;-66
2023/01/31 09:47:15;;;;;;;;;;;;;;;12.95;44.75;100891.66;4939637;28;98977;-66
2023/01/31 09:50:10;;;;;;;;;;;;;;;12.94;44.64;100892.75;4945777;28;98660;-66
2023/01/31 09:52:36;;;;;;;;;;;;;;;12.93;44.63;100884.88;4966647;28;99013;-66
2023/01/31 09:55:02;;;;;;;;;;;;;;;12.92;44.71;100884.09;4942413;28;127358;-66
2023/01/31 09:57:53;;;;;;;;;;;;;;;12.87;44.91;100880.59;4958213;28;97923;-66
2023/01/31 10:01:07;;;;;;;;;;;;;;;12.81;44.98;100897.88;4959353;28;99187;-68
2023/01/31 10:03:47;;;;;;;;;;;;;;;12.78;44.89;100878.44;4954763;28;98373;-66
2023/01/31 10:06:35;;;;;;;;;;;;;;;12.76;44.82;100872.47;4960018;28;116453;-67
2023/01/31 10:09:03;;;;;;;;;;;;;;;12.77;44.78;100874.09;4945699;28;99850;-66
2023/01/31 10:11:33;;;;;;;;;;;;;;;12.77;44.92;100867.88;4960461;28;97968;-65
2023/01/31 10:14:20;;;;;;;;;;;;;;;12.79;44.92;100860.31;4925989;28;115717;-66
2023/01/31 10:17:11;;;;;;;;;;;;;;;12.82;44.71;100867.06;4944442;28;99394;-67
2023/01/31 10:20:00;;;;;;;;;;;;;;;12.85;44.93;100855.69;4973380;28;98317;-67
2023/01/31 10:22:28;;;;;;;;;;;;;;;12.85;44.96;100840.28;4960131;28;98011;-68
2023/01/31 10:24:58;;;;;;;;;;;;;;;12.97;44.52;100851.63;4957455;28;98241;-68
2023/01/31 10:27:40;;;;;;;;;;;;;;;13.02;44.84;100834.56;4943079;28;99951;-67
2023/01/31 10:30:07;;;;;;;;;;;;;;;12.99;44.58;100835.09;4928582;28;99056;-66
2023/01/31 10:32:41;;;;;;;;;;;;;;;13.04;44.73;100843.19;4942370;28;110737;-66
2023/01/31 10:35:18;;;;;;;;;;;;;;;13.02;44.74;100829.97;4944530;28;98426;-66
2023/01/31 10:37:49;;;;;;;;;;;;;;;13.00;44.64;100829.41;4959365;28;98649;-66
2023/01/31 10:40:23;;;;;;;;;;;;;;;12.97;44.92;100837.28;4941058;28;124968;-67
2023/01/31 10:42:52;;;;;;;;;;;;;;;12.93;44.73;100831.63;4924754;28;99568;-67
2023/01/31 10:45:22;;;;;;;;;;;;;;;12.93;44.82;100825.38;4941874;28;100231;-68
2023/01/31 10:47:53;;;;;;;;;;;;;;;12.92;45.12;100826.47;4960730;28;97984;-66
2023/01/31 10:50:22;;;;;;;;;;;;;;;12.91;44.72;100820.25;4936955;28;99614;-66
2023/01/31 10:52:51;;;;;;;;;;;;;;;12.89;44.81;100810.75;4958917;28;98144;-65
2023/01/31 10:55:37;;;;;;;;;;;;;;;12.86;44.72;100801.31;4955005;28;98318;-65
2023/01/31 10:58:03;;;;;;;;;;;;;;;12.88;44.85;100804.53;4939034;28;120544;-66
2023/01/31 11:00:30;;;;;;;;;;;;;;;12.96;44.80;100800.47;4939207;28;129733;-66
2023/01/31 11:02:56;;;;;;;;;;;;;;;13.03;44.72;100788.28;4942797;28;109660;-66
2023/01/31 11:05:26;;;;;;;;;;;;;;;13.18;44.50;100786.59;4958234;28;116785;-65
2023/01/31 11:07:52;;;;;;;;;;;;;;;13.30;44.61;100775.50;4958036;28;98514;-66
2023/01/31 11:10:24;;;;;;;;;;;;;;;13.37;44.42;100782.22;4955210;28;127889;-65
2023/01/31 11:13:00;;;;;;;;;;;;;;;13.45;44.45;100767.28;4956951;28;106444;-66
2023/01/31 11:15:28;;;;;;;;;;;;;;;13.47;44.52;100762.41;4941937;28;99900;-65
2023/01/31 11:17:57;;;;;;;;;;;;;;;13.47;44.46;100765.91;4943690;28;99751;-66
2023/01/31 11:20:28;;;;;;;;;;;;;;;13.46;44.47;100739.13;4939753;28;125023;-66
2023/01/31 11:22:54;;;;;;;;;;;;;;;13.46;44.56;100749.94;4943397;28;98282;-66
2023/01/31 11:25:23;;;;;;;;;;;;;;;13.59;44.24;100749.31;4940612;28;113570;-67
2023/01/31 11:27:55;;;;;;;;;;;;;;;13.82;44.11;100745.13;4939598;28;100622;-66
2023/01/31 11:30:29;;;;;;;;;;;;;;;13.94;43.98;100737.44;4939657;28;102941;-66
2023/01/31 11:32:55;;;;;;;;;;;;;;;13.90;44.31;100717.41;4943896;28;97967;-66
2023/01/31 11:35:28;;;;;;;;;;;;;;;13.84;44.21;100721.28;4953153;28;124082;-66
2023/01/31 11:37:59;;;;;;;;;;;;;;;13.85;44.19;100705.81;4927902;28;100689;-67
2023/01/31 11:40:32;;;;;;;;;;;;;;;13.91;44.29;100689.25;4934875;28;99273;-67
2023/01/31 11:43:16;;;;;;;;;;;;;;;14.16;44.20;100687.38;4942608;28;98058;-66
2023/01/31 11:45:51;;;;;;;;;;;;;;;14.37;44.10;100675.22;4957710;28;98003;-67
2023/01/31 11:48:44;;;;;;;;;;;;;;;14.58;43.65;100664.19;4942826;28;114608;-66
2023/01/31 11:51:12;;;;;;;;;;;;;;;14.60;44.00;100657.38;4957774;28;98159;-66
2023/01/31 11:53:44;;;;;;;;;;;;;;;14.67;44.08;100657.84;4941935;28;98059;-66
2023/01/31 11:56:26;;;;;;;;;;;;;;;14.65;43.74;100654.59;4940223;28;98042;-66
2023/01/31 11:58:56;;;;;;;;;;;;;;;14.60;44.23;100640.31;4924417;28;126953;-66
2023/01/31 12:01:23;;;;;;;;;;;;;;;14.48;44.40;100652.34;4956196;28;98923;-66
2023/01/31 12:03:52;;;;;;;;;;;;;;;14.44;44.50;100656.72;4953272;28;98058;-65
2023/01/31 12:06:28;;;;;;;;;;;;;;;14.43;44.49;100657.03;4921932;28;103448;-66
2023/01/31 12:08:55;;;;;;;;;;;;;;;14.39;44.36;100631.56;4958104;28;98338;-67
2023/01/31 12:11:31;;;;;;;;;;;;;;;14.30;44.51;100623.25;4922194;28;115255;-66
2023/01/31 12:14:12;;;;;;;;;;;;;;;14.27;44.76;100618.41;4960176;28;116251;-67
2023/01/31 12:16:37;;;;;;;;;;;;;;;14.23;44.45;100612.75;4943946;28;98321;-67
2023/01/31 12:19:13;;;;;;;;;;;;;;;14.21;44.41;100606.81;4941297;28;127821;-67
2023/01/31 12:21:48;;;;;;;;;;;;;;;14.16;44.51;100595.22;4953926;28;100665;-66
2023/01/31 12:24:36;;;;;;;;;;;;;;;14.14;44.68;100597.41;4957859;28;98028;-66
2023/01/31 12:27:20;;;;;;;;;;;;;;;14.14;44.76;100600.91;4959036;28;98206;-66
2023/01/31 12:29:58;;;;;;;;;;;;;;;14.14;44.66;100597.41;4957966;28;98450;-65
2023/01/31 12:32:28;;;;;;;;;;;;;;;14.03;44.84;100601.31;4954138;28;99829;-66
2023/01/31 12:35:12;;;;;;;;;;;;;;;13.98;44.63;100605.69;4955811;28;99364;-67
2023/01/31 12:37:52;;;;;;;;;;;;;;;13.99;44.62;100590.25;4959194;28;99982;-66
2023/01/31 12:40:30;;;;;;;;;;;;;;;13.95;44.60;100586.47;4954800;28;123847;-65
2023/01/31 12:42:57;;;;;;;;;;;;;;;13.91;44.68;100577.31;4957325;28;97928;-66
2023/01/31 12:45:50;;;;;;;;;;;;;;;13.88;44.92;100564.34;4942509;28;98364;-68
2023/01/31 12:48:32;;;;;;;;;;;;;;;13.85;44.68;100581.97;4923366;28;118327;-67
2023/01/31 12:51:20;;;;;;;;;;;;;;;13.78;44.98;100562.53;4940418;28;98312;-66
2023/01/31 12:53:46;;;;;;;;;;;;;;;13.73;44.78;100573.44;4955488;28;98023;-65
2023/01/31 12:56:47;;;;;;;;;;;;;;;13.72;44.73;100567.22;4955713;28;97965;-68
2023/01/31 12:59:25;;;;;;;;;;;;;;;13.66;45.02;100565.63;4942577;28;98040;-66